createdAt,value
2022-07-26T00:00:12.179Z,33.18
2022-07-26T00:02:47.871Z,32.62
2022-07-26T00:05:13.251Z,33.81
2022-07-26T00:07:43.147Z,33.60
2022-07-26T00:10:13.490Z,34.49
2022-07-26T00:12:42.975Z,33.69
2022-07-26T00:15:13.016Z,34.07
2022-07-26T00:17:42.290Z,34.00
2022-07-26T00:20:11.997Z,34.09
2022-07-26T00:22:42.008Z,34.48
2022-07-26T00:25:11.864Z,34.99
2022-07-26T00:27:41.336Z,34.79
2022-07-26T00:30:12.085Z,33.94
2022-07-26T00:32:41.779Z,33.51
2022-07-26T00:35:11.515Z,34.43
2022-07-26T00:37:41.191Z,34.15
2022-07-26T00:40:11.404Z,34.18
2022-07-26T00:42:40.746Z,34.15
2022-07-26T00:45:11.767Z,33.87
2022-07-26T00:47:40.959Z,33.65
2022-07-26T00:50:12.991Z,34.40
2022-07-26T00:52:44.171Z,34.57
2022-07-26T00:55:16.458Z,33.67
2022-07-26T00:57:47.288Z,34.59
2022-07-26T01:00:22.010Z,34.31
2022-07-26T01:02:51.811Z,33.32
2022-07-26T01:05:21.107Z,33.79
2022-07-26T01:07:55.211Z,34.17
2022-07-26T01:10:27.739Z,32.60
2022-07-26T01:12:58.371Z,34.14
2022-07-26T01:15:27.940Z,34.01
2022-07-26T01:18:02.914Z,34.26
2022-07-26T01:20:33.326Z,34.03
2022-07-26T01:23:03.741Z,33.56
2022-07-26T01:25:43.467Z,34.00
2022-07-26T01:28:06.692Z,33.84
2022-07-26T01:30:35.970Z,33.87
2022-07-26T01:33:08.230Z,33.50
2022-07-26T01:35:39.087Z,33.85
2022-07-26T01:38:08.289Z,32.98
2022-07-26T01:40:37.463Z,33.65
2022-07-26T01:43:07.686Z,33.56
2022-07-26T01:45:36.877Z,33.56
2022-07-26T01:48:06.522Z,33.40
2022-07-26T01:50:36.092Z,33.59
2022-07-26T01:53:06.157Z,33.90
2022-07-26T01:55:36.121Z,32.77
2022-07-26T01:58:07.257Z,32.77
2022-07-26T02:00:36.922Z,33.44
2022-07-26T02:03:06.333Z,33.67
2022-07-26T02:05:35.584Z,33.89
2022-07-26T02:08:05.093Z,32.89
2022-07-26T02:10:52.409Z,33.74
2022-07-26T02:13:21.762Z,32.88
2022-07-26T02:15:51.076Z,33.18
2022-07-26T02:18:20.364Z,33.90
2022-07-26T02:20:49.507Z,33.34
2022-07-26T02:23:18.587Z,33.45
2022-07-26T02:25:48.230Z,33.50
2022-07-26T02:28:18.417Z,34.13
2022-07-26T02:30:48.789Z,34.16
2022-07-26T02:33:19.178Z,34.16
2022-07-26T02:35:48.789Z,33.76
2022-07-26T02:38:18.509Z,33.53
2022-07-26T02:40:50.770Z,34.76
2022-07-26T02:43:20.286Z,33.93
2022-07-26T02:46:00.854Z,34.33
2022-07-26T02:48:20.633Z,33.88
2022-07-26T02:50:51.451Z,34.78
2022-07-26T02:53:20.570Z,35.19
2022-07-26T02:55:49.639Z,35.02
2022-07-26T02:58:20.379Z,36.15
2022-07-26T03:00:49.678Z,36.15
2022-07-26T03:03:18.897Z,35.68
2022-07-26T03:05:48.077Z,35.68
2022-07-26T03:08:17.369Z,35.23
2022-07-26T03:10:46.477Z,36.60
2022-07-26T03:13:15.768Z,37.31
2022-07-26T03:15:45.132Z,35.23
2022-07-26T03:18:14.477Z,37.13
2022-07-26T03:20:43.692Z,37.13
2022-07-26T03:23:12.763Z,36.11
2022-07-26T03:25:42.063Z,36.11
2022-07-26T03:28:14.783Z,37.82
2022-07-26T03:30:41.966Z,37.82
2022-07-26T03:33:11.064Z,38.12
2022-07-26T03:35:40.121Z,38.44
2022-07-26T03:38:09.628Z,38.44
2022-07-26T03:40:38.784Z,39.07
2022-07-26T03:43:07.986Z,38.39
2022-07-26T03:45:37.929Z,38.08
2022-07-26T03:48:07.714Z,38.98
2022-07-26T03:50:36.811Z,38.98
2022-07-26T03:53:06.731Z,39.03
2022-07-26T03:55:54.046Z,39.73
2022-07-26T03:58:24.321Z,39.73
2022-07-26T04:00:53.571Z,39.27
2022-07-26T04:03:23.104Z,40.70
2022-07-26T04:05:52.648Z,40.12
2022-07-26T04:08:21.999Z,40.12
2022-07-26T04:10:54.789Z,40.28
2022-07-26T04:13:24.478Z,40.44
2022-07-26T04:15:53.700Z,41.62
2022-07-26T04:18:24.097Z,41.62
2022-07-26T04:20:53.606Z,40.50
2022-07-26T04:23:22.936Z,42.82
2022-07-26T04:25:52.106Z,42.48
2022-07-26T04:28:21.298Z,41.04
2022-07-26T04:30:50.569Z,41.43
2022-07-26T04:33:19.801Z,41.76
2022-07-26T04:35:49.199Z,42.01
2022-07-26T04:38:18.323Z,42.01
2022-07-26T04:40:47.518Z,42.09
2022-07-26T04:43:17.820Z,42.09
2022-07-26T04:45:48.092Z,41.76
2022-07-26T04:48:17.637Z,42.76
2022-07-26T04:50:47.187Z,42.11
2022-07-26T04:53:16.601Z,42.82
2022-07-26T04:55:46.274Z,43.62
2022-07-26T04:58:15.578Z,43.62
2022-07-26T05:01:08.870Z,42.83
2022-07-26T05:03:17.165Z,42.83
2022-07-26T05:05:46.380Z,43.03
2022-07-26T05:08:17.030Z,44.32
2022-07-26T05:10:47.782Z,44.47
2022-07-26T05:13:17.251Z,43.13
2022-07-26T05:15:49.478Z,42.78
2022-07-26T05:18:20.318Z,43.90
2022-07-26T05:20:52.705Z,43.90
2022-07-26T05:23:21.909Z,42.92
2022-07-26T05:25:51.082Z,42.92
2022-07-26T05:28:20.200Z,44.50
2022-07-26T05:30:49.539Z,45.43
2022-07-26T05:33:18.886Z,45.43
2022-07-26T05:35:48.080Z,46.25
2022-07-26T05:38:17.281Z,45.52
2022-07-26T05:40:50.460Z,45.52
2022-07-26T05:43:17.443Z,45.05
2022-07-26T05:45:46.662Z,46.48
2022-07-26T05:48:15.912Z,46.85
2022-07-26T05:50:45.747Z,45.16
2022-07-26T05:53:14.923Z,45.16
2022-07-26T05:55:44.139Z,45.65
2022-07-26T05:58:13.547Z,46.99
2022-07-26T06:00:46.780Z,44.25
2022-07-26T06:03:22.884Z,45.82
2022-07-26T06:05:54.273Z,46.11
2022-07-26T06:08:24.432Z,46.11
2022-07-26T06:10:54.020Z,45.42
2022-07-26T06:13:23.255Z,46.20
2022-07-26T06:15:53.063Z,46.20
2022-07-26T06:18:22.233Z,47.12
2022-07-26T06:20:53.229Z,44.00
2022-07-26T06:23:33.540Z,46.80
2022-07-26T06:25:53.232Z,46.08
2022-07-26T06:28:22.434Z,46.09
2022-07-26T06:30:54.092Z,46.09
2022-07-26T06:33:23.400Z,47.86
2022-07-26T06:35:52.481Z,47.22
2022-07-26T06:38:21.503Z,47.22
2022-07-26T06:40:50.673Z,47.73
2022-07-26T06:43:19.917Z,46.59
2022-07-26T06:45:49.871Z,46.59
2022-07-26T06:48:19.049Z,47.85
2022-07-26T06:50:48.190Z,46.42
2022-07-26T06:53:17.423Z,45.16
2022-07-26T06:55:46.682Z,45.16
2022-07-26T06:58:15.880Z,45.98
2022-07-26T07:00:45.181Z,47.06
2022-07-26T07:03:14.391Z,47.06
2022-07-26T07:05:48.048Z,45.29
2022-07-26T07:08:14.519Z,47.40
2022-07-26T07:10:44.347Z,47.87
2022-07-26T07:13:13.633Z,46.74
2022-07-26T07:15:42.830Z,46.74
2022-07-26T07:18:12.230Z,44.99
2022-07-26T07:20:41.843Z,46.37
2022-07-26T07:23:11.039Z,45.41
2022-07-26T07:25:40.136Z,45.41
2022-07-26T07:28:09.539Z,45.52
2022-07-26T07:30:39.062Z,44.74
2022-07-26T07:33:22.880Z,44.74
2022-07-26T07:35:41.947Z,42.07
2022-07-26T07:38:12.451Z,41.91
2022-07-26T07:40:41.706Z,41.85
2022-07-26T07:43:11.273Z,41.85
2022-07-26T07:45:40.379Z,41.78
2022-07-26T07:48:09.458Z,42.76
2022-07-26T07:50:38.683Z,44.77
2022-07-26T07:53:07.861Z,44.77
2022-07-26T07:55:40.927Z,44.71
2022-07-26T07:58:08.206Z,44.07
2022-07-26T08:00:37.411Z,44.07
2022-07-26T08:03:06.736Z,45.57
2022-07-26T08:05:40.392Z,46.94
2022-07-26T08:08:08.279Z,46.94
2022-07-26T08:10:41.727Z,45.36
2022-07-26T08:13:10.448Z,45.48
2022-07-26T08:15:40.574Z,45.62
2022-07-26T08:18:09.812Z,45.62
2022-07-26T08:20:40.531Z,46.35
2022-07-26T08:23:09.705Z,46.05
2022-07-26T08:25:50.142Z,46.05
2022-07-26T08:28:30.721Z,48.06
2022-07-26T08:30:41.293Z,47.29
2022-07-26T08:33:10.666Z,47.29
2022-07-26T08:35:39.916Z,48.09
2022-07-26T08:38:09.067Z,48.78
2022-07-26T08:40:38.794Z,48.57
2022-07-26T08:43:09.139Z,48.57
2022-07-26T08:45:38.358Z,48.63
2022-07-26T08:48:17.433Z,46.94
2022-07-26T08:50:39.663Z,48.03
2022-07-26T08:53:09.830Z,46.69
2022-07-26T08:56:04.472Z,43.81
2022-07-26T08:58:09.638Z,43.07
2022-07-26T09:00:42.071Z,43.07
2022-07-26T09:03:14.130Z,46.91
2022-07-26T09:05:43.380Z,47.25
2022-07-26T09:08:29.987Z,47.97
2022-07-26T09:11:00.302Z,47.97
2022-07-26T09:13:35.036Z,46.23
2022-07-26T09:16:13.981Z,46.23
2022-07-26T09:18:43.255Z,49.07
2022-07-26T09:21:33.146Z,45.49
2022-07-26T09:24:02.237Z,45.49
2022-07-26T09:26:31.337Z,45.02
2022-07-26T09:29:13.597Z,43.98
2022-07-26T09:31:43.033Z,44.06
2022-07-26T09:34:12.671Z,44.06
2022-07-26T09:36:55.860Z,43.19
2022-07-26T09:39:34.207Z,43.53
2022-07-26T09:42:24.913Z,44.13
2022-07-26T09:44:28.184Z,45.21
2022-07-26T09:46:59.783Z,45.89
2022-07-26T09:49:40.213Z,45.89
2022-07-26T09:52:01.272Z,46.83
2022-07-26T09:54:35.784Z,46.53
2022-07-26T09:57:05.530Z,47.58
2022-07-26T09:59:34.731Z,47.73
2022-07-26T10:02:03.878Z,46.75
2022-07-26T10:04:33.019Z,46.75
2022-07-26T10:07:03.141Z,46.99
2022-07-26T10:09:35.110Z,47.00
2022-07-26T10:12:07.471Z,45.19
2022-07-26T10:14:46.333Z,43.36
2022-07-26T10:17:35.171Z,43.36
2022-07-26T10:20:16.948Z,43.03
2022-07-26T10:22:45.745Z,44.29
2022-07-26T10:25:24.012Z,43.63
2022-07-26T10:27:55.715Z,42.62
2022-07-26T10:30:33.544Z,41.79
2022-07-26T10:33:06.723Z,42.29
2022-07-26T10:35:42.360Z,42.29
2022-07-26T10:38:17.292Z,41.28
2022-07-26T10:41:01.535Z,41.81
2022-07-26T10:43:41.157Z,41.81
2022-07-26T10:46:27.838Z,42.57
2022-07-26T10:49:07.830Z,42.85
2022-07-26T10:51:41.961Z,43.42
2022-07-26T10:54:15.458Z,43.42
2022-07-26T10:56:44.850Z,42.67
2022-07-26T10:59:14.056Z,42.02
2022-07-26T11:01:45.655Z,42.02
2022-07-26T11:04:23.013Z,43.74
2022-07-26T11:06:52.094Z,43.19
2022-07-26T11:09:21.519Z,40.99
2022-07-26T11:11:52.776Z,40.99
2022-07-26T11:14:21.938Z,40.66
2022-07-26T11:16:52.571Z,41.24
2022-07-26T11:19:27.726Z,42.60
2022-07-26T11:22:02.029Z,42.60
2022-07-26T11:24:31.636Z,42.15
2022-07-26T11:27:05.486Z,42.17
2022-07-26T11:29:41.195Z,42.17
2022-07-26T11:32:17.048Z,40.46
2022-07-26T11:34:42.061Z,38.77
2022-07-26T11:37:11.164Z,39.85
2022-07-26T11:39:40.235Z,39.85
2022-07-26T11:42:13.418Z,39.86
2022-07-26T11:44:47.508Z,39.86
2022-07-26T11:47:20.446Z,39.55
2022-07-26T11:49:59.789Z,39.29
2022-07-26T11:52:25.130Z,40.11
2022-07-26T11:54:54.486Z,39.59
2022-07-26T11:57:25.004Z,39.59
2022-07-26T11:59:54.192Z,38.65
2022-07-26T12:02:23.947Z,38.65
2022-07-26T12:04:56.085Z,39.44
2022-07-26T12:07:25.279Z,39.11
2022-07-26T12:09:55.287Z,39.60
2022-07-26T12:12:31.557Z,39.41
2022-07-26T12:15:02.797Z,40.46
2022-07-26T12:17:34.595Z,39.14
2022-07-26T12:20:15.875Z,38.81
2022-07-26T12:22:56.980Z,39.14
2022-07-26T12:25:30.729Z,39.14
2022-07-26T12:28:00.029Z,38.66
2022-07-26T12:30:30.845Z,38.12
2022-07-26T12:33:03.124Z,38.19
2022-07-26T12:35:35.963Z,38.10
2022-07-26T12:38:05.252Z,38.21
2022-07-26T12:40:42.412Z,38.21
2022-07-26T12:43:12.512Z,38.08
2022-07-26T12:45:41.728Z,38.08
2022-07-26T12:48:14.514Z,37.72
2022-07-26T12:50:43.708Z,37.72
2022-07-26T12:53:12.941Z,38.87
2022-07-26T12:55:42.314Z,38.96
2022-07-26T12:58:11.520Z,39.23
2022-07-26T13:00:40.682Z,39.23
2022-07-26T13:03:09.890Z,39.08
2022-07-26T13:05:39.085Z,39.08
2022-07-26T13:08:08.205Z,38.92
2022-07-26T13:10:37.389Z,39.21
2022-07-26T13:13:07.393Z,39.87
2022-07-26T13:15:37.960Z,39.87
2022-07-26T13:18:09.164Z,39.25
2022-07-26T13:20:41.643Z,39.54
2022-07-26T13:23:13.961Z,39.54
2022-07-26T13:25:43.311Z,39.43
2022-07-26T13:28:12.536Z,40.37
2022-07-26T13:30:43.457Z,40.64
2022-07-26T13:33:12.853Z,40.64
2022-07-26T13:35:43.279Z,38.17
2022-07-26T13:38:12.462Z,38.17
2022-07-26T13:40:41.813Z,37.17
2022-07-26T13:43:10.885Z,37.47
2022-07-26T13:45:40.038Z,37.47
2022-07-26T13:48:09.809Z,37.02
2022-07-26T13:50:39.034Z,37.02
2022-07-26T13:53:08.299Z,35.14
2022-07-26T13:55:37.500Z,36.57
2022-07-26T13:58:09.893Z,36.89
2022-07-26T14:00:37.518Z,35.84
2022-07-26T14:03:06.843Z,36.75
2022-07-26T14:05:36.239Z,36.75
2022-07-26T14:08:06.303Z,37.80
2022-07-26T14:10:37.887Z,36.63
2022-07-26T14:13:07.871Z,36.00
2022-07-26T14:15:37.025Z,36.00
2022-07-26T14:18:06.304Z,37.19
2022-07-26T14:20:35.500Z,37.96
2022-07-26T14:23:04.941Z,36.49
2022-07-26T14:25:34.252Z,37.86
2022-07-26T14:28:03.301Z,37.52
2022-07-26T14:30:32.466Z,37.00
2022-07-26T14:33:02.004Z,37.00
2022-07-26T14:35:31.198Z,38.59
2022-07-26T14:38:00.724Z,38.87
2022-07-26T14:40:29.966Z,38.32
2022-07-26T14:42:59.310Z,38.41
2022-07-26T14:45:28.493Z,38.41
2022-07-26T14:47:58.042Z,38.16
2022-07-26T14:50:27.325Z,38.16
2022-07-26T14:52:57.199Z,38.17
2022-07-26T14:55:27.033Z,37.87
2022-07-26T14:57:56.252Z,38.33
2022-07-26T15:00:25.432Z,38.33
2022-07-26T15:02:54.691Z,38.11
2022-07-26T15:05:25.464Z,38.80
2022-07-26T15:07:55.048Z,38.80
2022-07-26T15:10:25.915Z,38.20
2022-07-26T15:12:55.020Z,37.35
2022-07-26T15:15:24.263Z,37.35
2022-07-26T15:17:54.217Z,37.93
2022-07-26T15:20:24.547Z,37.93
2022-07-26T15:22:54.518Z,37.97
2022-07-26T15:25:25.050Z,38.58
2022-07-26T15:27:54.702Z,38.35
2022-07-26T15:30:23.973Z,38.28
2022-07-26T15:32:55.147Z,38.78
2022-07-26T15:35:24.438Z,38.92
2022-07-26T15:37:53.641Z,38.88
2022-07-26T15:40:22.987Z,38.88
2022-07-26T15:42:53.098Z,38.94
2022-07-26T15:45:23.663Z,38.47
2022-07-26T15:47:59.022Z,38.83
2022-07-26T15:50:25.223Z,39.24
2022-07-26T15:52:54.278Z,39.13
2022-07-26T15:55:23.597Z,39.13
2022-07-26T15:57:52.651Z,38.91
2022-07-26T16:00:21.852Z,38.88
2022-07-26T16:02:51.050Z,38.88
2022-07-26T16:05:20.451Z,38.05
2022-07-26T16:07:49.550Z,38.05
2022-07-26T16:10:18.981Z,38.95
2022-07-26T16:12:48.351Z,38.82
2022-07-26T16:15:17.439Z,39.30
2022-07-26T16:17:46.545Z,38.62
2022-07-26T16:20:17.296Z,38.40
2022-07-26T16:22:47.097Z,37.81
2022-07-26T16:25:16.513Z,37.78
2022-07-26T16:27:45.713Z,38.50
2022-07-26T16:30:16.120Z,38.50
2022-07-26T16:32:45.251Z,38.95
2022-07-26T16:35:14.669Z,38.27
2022-07-26T16:37:43.820Z,39.07
2022-07-26T16:40:13.386Z,38.75
2022-07-26T16:42:42.643Z,38.75
2022-07-26T16:45:12.210Z,38.56
2022-07-26T16:47:41.432Z,38.75
2022-07-26T16:50:11.293Z,37.95
2022-07-26T16:52:40.469Z,38.77
2022-07-26T16:55:14.893Z,38.77
2022-07-26T16:57:46.611Z,38.80
2022-07-26T17:00:20.630Z,38.81
2022-07-26T17:02:50.471Z,38.77
2022-07-26T17:05:19.839Z,38.77
2022-07-26T17:07:48.964Z,38.75
2022-07-26T17:10:18.686Z,38.39
2022-07-26T17:12:47.850Z,38.62
2022-07-26T17:15:17.249Z,38.56
2022-07-26T17:17:48.873Z,38.42
2022-07-26T17:20:17.623Z,38.42
2022-07-26T17:22:46.987Z,37.38
2022-07-26T17:25:16.188Z,37.38
2022-07-26T17:27:45.384Z,38.04
2022-07-26T17:30:15.091Z,38.13
2022-07-26T17:32:44.254Z,37.75
2022-07-26T17:35:13.490Z,37.76
2022-07-26T17:37:42.902Z,37.76
2022-07-26T17:40:12.883Z,38.42
2022-07-26T17:42:42.518Z,38.12
2022-07-26T17:45:12.647Z,38.21
2022-07-26T17:47:41.834Z,38.21
2022-07-26T17:50:35.383Z,38.28
2022-07-26T17:52:42.519Z,37.37
2022-07-26T17:55:12.097Z,37.37
2022-07-26T17:57:41.404Z,37.33
2022-07-26T18:00:11.814Z,38.14
2022-07-26T18:02:41.045Z,38.13
2022-07-26T18:05:11.547Z,38.13
2022-07-26T18:07:41.868Z,37.83
2022-07-26T18:10:11.761Z,37.47
2022-07-26T18:12:41.683Z,37.47
2022-07-26T18:15:11.455Z,36.96
2022-07-26T18:17:41.201Z,37.13
2022-07-26T18:20:11.381Z,37.13
2022-07-26T18:22:41.183Z,37.89
2022-07-26T18:25:10.951Z,37.82
2022-07-26T18:27:40.069Z,37.74
2022-07-26T18:30:09.906Z,37.74
2022-07-26T18:32:39.064Z,37.70
2022-07-26T18:35:08.705Z,37.20
2022-07-26T18:37:37.981Z,37.52
2022-07-26T18:40:08.173Z,37.52
2022-07-26T18:42:38.232Z,37.31
2022-07-26T18:45:08.027Z,37.42
2022-07-26T18:47:37.233Z,37.42
2022-07-26T18:50:07.407Z,37.47
2022-07-26T18:52:37.491Z,37.47
2022-07-26T18:55:08.983Z,37.23
2022-07-26T18:57:40.150Z,37.25
2022-07-26T19:00:12.748Z,37.24
2022-07-26T19:02:43.157Z,37.16
2022-07-26T19:05:12.858Z,37.16
2022-07-26T19:07:42.226Z,37.09
2022-07-26T19:10:12.199Z,36.66
2022-07-26T19:12:42.469Z,36.66
2022-07-26T19:15:12.102Z,37.04
2022-07-26T19:17:41.695Z,36.90
2022-07-26T19:20:11.902Z,36.90
2022-07-26T19:22:41.600Z,38.05
2022-07-26T19:25:13.223Z,38.05
2022-07-26T19:27:42.424Z,37.35
2022-07-26T19:30:13.357Z,36.90
2022-07-26T19:32:42.567Z,36.25
2022-07-26T19:35:11.857Z,36.25
2022-07-26T19:37:40.955Z,36.71
2022-07-26T19:40:10.911Z,36.39
2022-07-26T19:42:41.596Z,36.37
2022-07-26T19:45:11.501Z,36.37
2022-07-26T19:47:40.639Z,36.47
2022-07-26T19:50:12.020Z,36.47
2022-07-26T19:52:41.590Z,36.34
2022-07-26T19:55:11.342Z,36.31
2022-07-26T19:57:40.550Z,36.31
2022-07-26T20:00:12.067Z,36.42
2022-07-26T20:02:41.711Z,36.42
2022-07-26T20:05:14.422Z,36.69
2022-07-26T20:07:43.616Z,36.09
2022-07-26T20:10:12.731Z,36.54
2022-07-26T20:12:42.866Z,36.04
2022-07-26T20:15:13.087Z,35.31
2022-07-26T20:17:42.456Z,35.20
2022-07-26T20:20:12.211Z,36.42
2022-07-26T20:22:41.367Z,35.78
2022-07-26T20:25:10.722Z,36.48
2022-07-26T20:27:39.994Z,36.26
2022-07-26T20:30:10.122Z,36.26
2022-07-26T20:32:39.207Z,36.54
2022-07-26T20:35:08.803Z,36.26
2022-07-26T20:37:37.952Z,35.46
2022-07-26T20:40:09.151Z,35.23
2022-07-26T20:42:40.400Z,35.41
2022-07-26T20:45:11.473Z,35.43
2022-07-26T20:47:41.938Z,34.93
2022-07-26T20:50:14.099Z,34.93
2022-07-26T20:52:43.305Z,34.67
2022-07-26T20:55:12.801Z,34.15
2022-07-26T20:57:42.483Z,34.15
2022-07-26T21:00:12.317Z,35.00
2022-07-26T21:02:41.619Z,34.99
2022-07-26T21:05:11.993Z,34.29
2022-07-26T21:07:57.118Z,34.77
2022-07-26T21:10:12.776Z,35.18
2022-07-26T21:12:42.044Z,34.36
2022-07-26T21:15:12.161Z,34.36
2022-07-26T21:17:41.328Z,34.97
2022-07-26T21:20:11.097Z,33.94
2022-07-26T21:22:40.252Z,34.51
2022-07-26T21:25:10.045Z,34.70
2022-07-26T21:27:39.999Z,34.65
2022-07-26T21:30:10.282Z,34.32
2022-07-26T21:32:39.496Z,34.57
2022-07-26T21:35:09.256Z,34.35
2022-07-26T21:37:38.508Z,34.37
2022-07-26T21:40:08.663Z,34.15
2022-07-26T21:42:38.067Z,34.04
2022-07-26T21:45:08.666Z,33.81
2022-07-26T21:47:37.864Z,33.72
2022-07-26T21:50:07.819Z,34.06
2022-07-26T21:52:37.078Z,34.46
2022-07-26T21:55:06.886Z,34.58
2022-07-26T21:57:35.973Z,34.54
2022-07-26T22:00:07.424Z,34.77
2022-07-26T22:02:36.577Z,34.53
2022-07-26T22:05:07.857Z,34.77
2022-07-26T22:07:37.093Z,34.17
2022-07-26T22:10:06.765Z,34.69
2022-07-26T22:12:35.873Z,34.48
2022-07-26T22:15:05.314Z,34.35
2022-07-26T22:17:34.481Z,34.51
2022-07-26T22:20:04.392Z,34.20
2022-07-26T22:22:33.522Z,34.70
2022-07-26T22:25:03.101Z,34.44
2022-07-26T22:27:32.496Z,34.36
2022-07-26T22:30:02.504Z,33.88
2022-07-26T22:32:31.740Z,35.03
2022-07-26T22:35:00.914Z,34.96
2022-07-26T22:37:30.005Z,35.38
2022-07-26T22:39:59.099Z,35.31
2022-07-26T22:42:28.622Z,35.01
2022-07-26T22:44:57.806Z,35.78
2022-07-26T22:47:27.144Z,35.14
2022-07-26T22:49:56.410Z,34.57
2022-07-26T22:52:25.821Z,34.91
2022-07-26T22:54:55.215Z,34.91
2022-07-26T22:57:24.512Z,35.43
2022-07-26T22:59:53.735Z,35.78
2022-07-26T23:02:23.954Z,35.59
2022-07-26T23:04:53.128Z,34.77
2022-07-26T23:07:23.150Z,35.46
2022-07-26T23:09:53.392Z,35.33
2022-07-26T23:12:22.469Z,35.17
2022-07-26T23:14:51.661Z,35.66
2022-07-26T23:17:20.866Z,35.67
2022-07-26T23:19:50.409Z,35.13
2022-07-26T23:22:19.541Z,35.61
2022-07-26T23:24:48.759Z,35.29
2022-07-26T23:27:20.189Z,35.19
2022-07-26T23:29:50.359Z,35.68
2022-07-26T23:32:19.532Z,35.68
2022-07-26T23:34:48.732Z,34.13
2022-07-26T23:37:17.979Z,33.49
2022-07-26T23:39:47.135Z,34.45
2022-07-26T23:42:16.322Z,34.55
2022-07-26T23:44:45.522Z,32.07
2022-07-26T23:47:14.867Z,34.12
2022-07-26T23:49:44.038Z,34.37
2022-07-26T23:52:13.208Z,33.96
2022-07-26T23:54:42.611Z,33.84
2022-07-26T23:57:11.809Z,34.02
2022-07-26T23:59:41.028Z,33.89
